Details From MKJP - Norman Manley Intl
To MYNN - Nassau Intl
Flight Number -
Tags decoded
Created
Modified
Stats Distance 429 nm / 794 km
Max Altitude 0 ft / 0 m
Waypoints 6
Social Downloads 1
Likes 0
Share VATSIM

Download

Looking for another format? Having issues loading an existing format? Contact us
Advertisement - Login to hide

Notes

Requested: MKJP UNV UB503 ENAMO B503 HODGY ZQA MYNN

Route

MKJP UNV B503 HODGY ZQA MYNN

ID Type Via Altitude Latitude Longitude Leg Dist Tot Dist Heading (true) Name
O MKJP APT - 0 ft / 0 m 17.93567˚ -76.78756˚ - 0 nm - Norman Manley Intl
UNV NDB - 0 ft / 0 m 21.39944˚ -77.23250˚ 209 nm 209 nm 353° / 353° NUEVAS NDB
ENAMO FIX B503 (AWY-LO) 0 ft / 0 m 23.56219˚ -77.35961˚ 130 nm 339 nm 357° / 357° -
HODGY FIX B503 (AWY-HI) 0 ft / 0 m 24.16050˚ -77.39478˚ 35 nm 375 nm 357° / 357° -
ZQA NDB - 0 ft / 0 m 25.04042˚ -77.47050˚ 53 nm 428 nm 356° / 356° NASSAU NDB
O MYNN APT - 0 ft / 0 m 25.03860˚ -77.46662˚ 0 nm 428 nm 117° / 117° Nassau Intl

Altitude Profile

Advertisement - Login to hide

Weather


0- 5 10 15 20 25 30 35+ Temperature / ° C

Clouds and Precipitation
Forecast for 2017-12-17 06:00 UTC. Updated an hour ago

Ground ~20,000 ft ~40,000 ft Winds

MKJP

Details ICAO MKJP (KIN)
Name Norman Manley Intl
Region Jamaica
Timezone Unknown (UTC+0.0)
Stats Elevation 10 ft / 3 m (AMSL)
Location 17.935665° -76.787560°
Runways 1
Magnetic Variation 7.542° W

METAR

MKJP 170200Z 31006KT 9999 FEW024 27/24 Q1015

Decode

TAF

TAF MKJP 162315Z 1700/1724 35009KT 9999 FEW024 BECMG 1714/1716 15018KT

Decode

Departure Runways

ID Width Length Bearing (true) Bearing (mag) Surface Threshold Offset Overrun Length
12 150 ft / 46 m 8,912 ft / 2,717 m 112.09° 119.63° Asphalt 0 ft / 0 m 0 ft / 0 m
30 150 ft / 46 m 8,912 ft / 2,717 m 292.10° 299.64° Asphalt 0 ft / 0 m 0 ft / 0 m

MYNN

Details ICAO MYNN (NAS)
Name Nassau Intl
Region Bahamas
Timezone America/Nassau (UTC-5.0)
Stats Elevation 16 ft / 5 m (AMSL)
Location 25.038596° -77.466621°
Runways 2
Magnetic Variation 8.219° W

METAR

MYNN 170200Z 04009KT 9999 BKN040 BKN250 24/18 A3020

Decode

TAF

TAF MYNN 162315Z 1700/1724 04007KT 9999 BKN040 BKN250 BECMG 1714/1716 06013KT

Decode

Destination Runways

ID Width Length Bearing (true) Bearing (mag) Surface Threshold Offset Overrun Length
09 151 ft / 46 m 8,311 ft / 2,533 m 89.62° 97.84° Asphalt 0 ft / 0 m 0 ft / 0 m
14 151 ft / 46 m 11,364 ft / 3,464 m 134.83° 143.05° Asphalt 226 ft / 69 m 0 ft / 0 m
27 151 ft / 46 m 8,311 ft / 2,533 m 269.64° 277.86° Asphalt 0 ft / 0 m 0 ft / 0 m
32 151 ft / 46 m 11,364 ft / 3,464 m 314.84° 323.06° Asphalt 0 ft / 0 m 0 ft / 0 m

Approach Navaids

Runway Type Ident Frequency Range Bearing (true) Bearing (mag) Slope Elevation
14 Localiser IZQA 110.10 MHz 18 nm / 33 km 134.83° 143.05° - 7 ft / 2 m (AMSL)
14 Glidescope IZQA 110.10 MHz 10 nm / 19 km 134.83° 143.05° 3.00° 8 ft / 2 m (AMSL)

Popular Alternatives